Time;durP1;ratioP1;P1;durP2;ratioP2;P2;SDS_P1;SDS_P2;PMS_P1;PMS_P2;Temp;Humidity;BMP_temperature;BMP_pressure;BME280_temperature;BME280_humidity;BME280_pressure;Samples;Min_cycle;Max_cycle;Signal;HPM_P1;HPM_P2
2023/12/26 00:02:07;;;;;;;2.87;0.97;;;9.30;99.90;;;;;;4945804;28;20275;-54
2023/12/26 00:04:33;;;;;;;1.97;1.10;;;9.30;99.90;;;;;;4940741;28;20222;-54
2023/12/26 00:06:58;;;;;;;1.00;1.00;;;9.30;99.90;;;;;;4944236;28;21038;-54
2023/12/26 00:09:24;;;;;;;4.57;1.23;;;9.30;99.90;;;;;;4955554;28;20197;-54
2023/12/26 00:11:50;;;;;;;1.27;1.27;;;9.30;99.90;;;;;;4955951;28;20212;-54
2023/12/26 00:14:16;;;;;;;1.00;1.00;;;9.30;99.90;;;;;;4940017;28;20210;-54
2023/12/26 00:16:43;;;;;;;2.77;1.30;;;9.30;99.90;;;;;;4949910;28;20265;-55
2023/12/26 00:19:09;;;;;;;1.10;1.00;;;9.30;99.90;;;;;;4939716;28;20718;-54
2023/12/26 00:21:36;;;;;;;2.07;0.90;;;9.20;99.90;;;;;;4944243;28;20197;-54
2023/12/26 00:24:02;;;;;;;1.80;1.50;;;9.20;99.90;;;;;;4938285;28;20194;-55
2023/12/26 00:26:28;;;;;;;1.33;1.13;;;9.30;99.90;;;;;;4942821;28;20225;-55
2023/12/26 00:28:53;;;;;;;5.80;1.67;;;9.40;99.90;;;;;;4955025;28;20222;-56
2023/12/26 00:31:18;;;;;;;1.70;1.37;;;9.40;99.90;;;;;;4944262;28;20198;-55
2023/12/26 00:33:44;;;;;;;2.17;1.27;;;9.30;99.90;;;;;;4947271;28;20741;-55
2023/12/26 00:36:14;;;;;;;2.57;1.20;;;9.30;99.90;;;;;;4955648;28;21079;-56
2023/12/26 00:38:39;;;;;;;4.67;1.63;;;9.30;99.90;;;;;;4946310;28;20229;-55
2023/12/26 00:41:05;;;;;;;2.63;1.63;;;9.40;99.90;;;;;;4943909;28;20632;-55
2023/12/26 00:43:31;;;;;;;3.63;1.40;;;9.40;99.90;;;;;;4963707;28;20417;-55
2023/12/26 00:45:56;;;;;;;4.40;1.57;;;9.30;99.90;;;;;;4970914;28;20207;-55
2023/12/26 00:48:22;;;;;;;2.03;1.47;;;9.30;99.90;;;;;;4952180;28;20277;-54
2023/12/26 00:50:47;;;;;;;1.80;1.40;;;9.30;99.90;;;;;;4941090;28;20797;-55
2023/12/26 00:53:13;;;;;;;5.17;2.00;;;9.30;99.90;;;;;;4968824;28;20217;-54
2023/12/26 00:55:38;;;;;;;1.67;1.30;;;9.30;99.90;;;;;;4943666;28;20216;-65
2023/12/26 00:58:04;;;;;;;2.10;1.47;;;9.30;99.90;;;;;;4930007;28;20206;-55
2023/12/26 01:00:29;;;;;;;4.50;1.60;;;9.30;99.90;;;;;;4929900;28;20606;-55
2023/12/26 01:02:55;;;;;;;4.13;1.90;;;9.30;99.90;;;;;;4934336;28;20217;-62
2023/12/26 01:05:20;;;;;;;3.37;1.57;;;9.30;99.90;;;;;;4936369;28;20209;-64
2023/12/26 01:07:46;;;;;;;5.07;1.60;;;9.30;99.90;;;;;;4942016;28;20206;-66
2023/12/26 01:10:12;;;;;;;2.17;1.70;;;9.30;99.90;;;;;;4954025;28;20191;-65
2023/12/26 01:12:37;;;;;;;1.53;1.43;;;9.30;99.90;;;;;;4944863;28;20210;-58
2023/12/26 01:15:03;;;;;;;2.67;1.80;;;9.30;99.90;;;;;;4939620;28;20232;-56
2023/12/26 01:17:28;;;;;;;1.40;1.30;;;9.30;99.90;;;;;;4945523;28;20206;-57
2023/12/26 01:19:54;;;;;;;1.70;1.60;;;9.30;99.90;;;;;;4946941;28;20218;-57
2023/12/26 01:22:19;;;;;;;2.90;1.47;;;9.30;99.90;;;;;;4953469;28;20225;-59
2023/12/26 01:24:45;;;;;;;2.53;1.40;;;9.40;99.90;;;;;;4957809;28;20236;-59
2023/12/26 01:27:11;;;;;;;1.53;1.43;;;9.40;99.90;;;;;;4938895;28;20218;-54
2023/12/26 01:29:36;;;;;;;1.73;1.40;;;9.40;99.90;;;;;;4940378;28;20237;-55
2023/12/26 01:32:02;;;;;;;1.33;1.23;;;9.40;99.90;;;;;;4944402;28;20241;-56
2023/12/26 01:34:27;;;;;;;1.77;1.67;;;9.40;99.90;;;;;;4941431;28;20197;-56
2023/12/26 01:36:53;;;;;;;3.90;1.20;;;9.50;99.90;;;;;;4936264;28;20214;-56
2023/12/26 01:39:18;;;;;;;2.70;1.30;;;9.50;99.90;;;;;;4938135;28;20217;-55
2023/12/26 01:41:45;;;;;;;1.73;1.17;;;9.50;99.90;;;;;;4940624;28;20268;-72
2023/12/26 01:44:10;;;;;;;1.10;1.10;;;9.40;99.90;;;;;;4937168;28;20229;-57
2023/12/26 01:46:36;;;;;;;0.97;0.97;;;9.40;99.90;;;;;;4942338;28;20240;-55
2023/12/26 01:49:02;;;;;;;0.67;0.67;;;9.50;99.90;;;;;;4963503;28;20202;-55
2023/12/26 01:51:29;;;;;;;1.33;0.87;;;9.50;99.90;;;;;;4942452;28;20672;-55
2023/12/26 01:53:55;;;;;;;0.83;0.83;;;9.40;99.90;;;;;;4954510;28;20201;-55
2023/12/26 01:56:21;;;;;;;1.43;0.80;;;9.50;99.90;;;;;;4945284;28;20244;-55
2023/12/26 01:58:48;;;;;;;0.60;0.60;;;9.50;99.90;;;;;;4977301;28;20242;-55
2023/12/26 02:01:14;;;;;;;0.43;0.43;;;9.50;99.90;;;;;;4958515;28;20288;-55
2023/12/26 02:03:40;;;;;;;1.13;0.83;;;9.50;99.90;;;;;;4944200;28;20764;-56
2023/12/26 02:06:07;;;;;;;0.53;0.53;;;9.50;99.90;;;;;;4943358;28;20214;-55
2023/12/26 02:08:35;;;;;;;1.20;0.67;;;9.50;99.90;;;;;;4956413;28;20561;-54
2023/12/26 02:11:02;;;;;;;0.43;0.43;;;9.50;99.90;;;;;;4958347;28;20272;-55
2023/12/26 02:13:28;;;;;;;0.30;0.30;;;9.60;99.90;;;;;;4940462;28;20575;-55
2023/12/26 02:15:57;;;;;;;0.43;0.43;;;9.60;99.90;;;;;;4940577;28;20203;-55
2023/12/26 02:18:24;;;;;;;0.40;0.40;;;9.60;99.90;;;;;;4933423;28;20236;-53
2023/12/26 02:20:49;;;;;;;1.00;1.00;;;9.60;99.90;;;;;;4945905;28;20205;-55
2023/12/26 02:23:15;;;;;;;0.40;0.40;;;9.60;99.90;;;;;;4944473;28;20195;-54
2023/12/26 02:25:40;;;;;;;0.30;0.30;;;9.70;99.90;;;;;;4938279;28;20229;-55
2023/12/26 02:28:07;;;;;;;0.57;0.50;;;9.60;99.90;;;;;;4942290;28;20669;-55
2023/12/26 02:30:35;;;;;;;0.30;0.30;;;9.60;99.90;;;;;;4937693;28;20572;-55
2023/12/26 02:33:02;;;;;;;0.30;0.30;;;9.60;99.90;;;;;;4934595;28;20233;-55
2023/12/26 02:35:28;;;;;;;0.23;0.23;;;9.70;99.90;;;;;;4938165;28;21316;-55
2023/12/26 02:37:54;;;;;;;0.50;0.50;;;9.60;99.90;;;;;;4943721;28;20402;-55
2023/12/26 02:40:20;;;;;;;0.57;0.57;;;9.60;99.90;;;;;;4943283;28;20205;-55
2023/12/26 02:42:45;;;;;;;0.20;0.20;;;9.60;99.90;;;;;;4948737;28;20621;-55
2023/12/26 02:45:11;;;;;;;0.37;0.37;;;9.60;99.90;;;;;;4946614;28;20593;-56
2023/12/26 02:47:36;;;;;;;0.20;0.20;;;9.60;99.90;;;;;;4948035;28;20247;-55
2023/12/26 02:50:02;;;;;;;0.40;0.40;;;9.60;99.90;;;;;;4936981;28;20293;-56
2023/12/26 02:52:28;;;;;;;0.20;0.20;;;9.70;99.90;;;;;;4938834;28;21011;-56
2023/12/26 02:54:53;;;;;;;0.60;0.40;;;9.70;99.90;;;;;;4965352;28;20561;-56
2023/12/26 02:57:19;;;;;;;0.30;0.30;;;9.60;99.90;;;;;;4973266;28;20209;-55
2023/12/26 02:59:44;;;;;;;1.60;0.20;;;9.60;99.90;;;;;;4958265;28;20311;-56
2023/12/26 03:02:10;;;;;;;0.20;0.20;;;9.50;99.90;;;;;;4949117;28;20201;-55
2023/12/26 03:04:36;;;;;;;0.83;0.50;;;9.50;99.90;;;;;;4961055;28;20372;-55
2023/12/26 03:07:02;;;;;;;0.30;0.30;;;9.40;99.90;;;;;;4940993;28;20226;-55
2023/12/26 03:09:27;;;;;;;0.33;0.20;;;9.40;99.90;;;;;;4940235;28;20681;-56
2023/12/26 03:11:53;;;;;;;0.60;0.40;;;9.40;99.90;;;;;;4937663;28;20278;-55
2023/12/26 03:14:18;;;;;;;0.30;0.30;;;9.30;99.90;;;;;;4943246;28;20205;-54
2023/12/26 03:16:44;;;;;;;0.10;0.10;;;9.30;99.90;;;;;;4960349;28;20199;-55
2023/12/26 03:19:10;;;;;;;0.30;0.30;;;9.30;99.90;;;;;;4950847;28;20198;-55
2023/12/26 03:21:35;;;;;;;0.30;0.30;;;9.20;99.90;;;;;;4943728;28;20909;-55
2023/12/26 03:24:01;;;;;;;0.40;0.40;;;9.20;99.90;;;;;;4945100;28;20194;-56
2023/12/26 03:26:27;;;;;;;0.30;0.30;;;9.10;99.90;;;;;;4947423;28;20226;-55
2023/12/26 03:28:52;;;;;;;0.20;0.20;;;9.10;99.90;;;;;;4937585;28;20637;-56
2023/12/26 03:31:18;;;;;;;0.30;0.30;;;9.10;99.90;;;;;;4945595;28;20202;-56
2023/12/26 03:33:43;;;;;;;0.50;0.50;;;9.10;99.90;;;;;;4940065;28;20264;-56
2023/12/26 03:36:09;;;;;;;0.40;0.40;;;9.10;99.90;;;;;;4937864;28;20214;-56
2023/12/26 03:38:36;;;;;;;0.93;0.80;;;9.10;99.90;;;;;;4957531;28;20214;-56
2023/12/26 03:41:02;;;;;;;0.93;0.40;;;9.10;99.90;;;;;;4939785;28;20332;-56
2023/12/26 03:43:27;;;;;;;0.73;0.30;;;9.10;99.90;;;;;;4937393;28;20231;-56
2023/12/26 03:45:56;;;;;;;1.07;0.70;;;9.10;99.90;;;;;;4938992;28;20603;-56
2023/12/26 03:48:21;;;;;;;0.87;0.53;;;9.10;99.90;;;;;;4942836;28;20691;-55
2023/12/26 03:50:47;;;;;;;0.50;0.50;;;9.10;99.90;;;;;;4947467;28;20272;-55
2023/12/26 03:53:12;;;;;;;0.50;0.50;;;9.10;99.90;;;;;;4959949;28;20679;-56
2023/12/26 03:55:38;;;;;;;0.37;0.37;;;9.10;99.90;;;;;;4957754;28;21515;-56
2023/12/26 03:58:04;;;;;;;0.30;0.30;;;9.10;99.90;;;;;;4953679;28;20864;-56
2023/12/26 04:00:29;;;;;;;0.60;0.60;;;9.10;99.90;;;;;;4944682;28;21015;-56
2023/12/26 04:02:55;;;;;;;0.40;0.40;;;9.00;99.90;;;;;;4940342;28;20211;-57
2023/12/26 04:05:21;;;;;;;0.30;0.30;;;9.00;99.90;;;;;;4945926;28;20210;-59
2023/12/26 04:07:47;;;;;;;0.23;0.23;;;9.00;99.90;;;;;;4950547;28;20213;-56
2023/12/26 04:10:13;;;;;;;0.20;0.20;;;9.00;99.90;;;;;;4948888;28;20628;-56
2023/12/26 04:12:40;;;;;;;0.30;0.30;;;9.10;99.90;;;;;;4939411;28;20869;-55
2023/12/26 04:15:06;;;;;;;0.40;0.27;;;9.10;99.90;;;;;;4966137;28;20191;-56
2023/12/26 04:17:32;;;;;;;0.30;0.30;;;9.10;99.90;;;;;;4946419;28;20778;-56
2023/12/26 04:19:58;;;;;;;0.30;0.30;;;9.10;99.90;;;;;;4940482;28;20206;-56
2023/12/26 04:22:24;;;;;;;0.40;0.40;;;9.10;99.90;;;;;;4939202;28;20231;-56
2023/12/26 04:24:49;;;;;;;0.87;0.60;;;9.10;99.90;;;;;;4957961;28;20185;-57
2023/12/26 04:27:15;;;;;;;0.47;0.47;;;9.20;99.90;;;;;;4976317;28;20230;-55
2023/12/26 04:29:40;;;;;;;0.87;0.40;;;9.20;99.90;;;;;;4943418;28;20618;-55
2023/12/26 04:32:06;;;;;;;0.40;0.40;;;9.20;99.90;;;;;;4938570;28;20205;-55
2023/12/26 04:34:32;;;;;;;1.10;0.50;;;9.20;99.90;;;;;;4938877;28;20732;-78
2023/12/26 04:36:57;;;;;;;0.47;0.47;;;9.20;99.90;;;;;;4956464;28;20200;-78
2023/12/26 04:39:25;;;;;;;0.40;0.40;;;9.10;99.90;;;;;;4948014;28;20202;-56
2023/12/26 04:41:51;;;;;;;0.30;0.30;;;9.10;99.90;;;;;;4943009;28;20292;-55
2023/12/26 04:44:16;;;;;;;1.60;1.23;;;9.10;99.90;;;;;;4932732;28;21055;-55
2023/12/26 04:46:42;;;;;;;0.50;0.50;;;9.10;99.90;;;;;;4941755;28;20225;-55
2023/12/26 04:49:07;;;;;;;0.50;0.50;;;9.10;99.90;;;;;;4938734;28;20195;-59
2023/12/26 04:51:33;;;;;;;0.20;0.20;;;9.20;99.90;;;;;;4940493;28;20592;-57
2023/12/26 04:53:59;;;;;;;1.70;0.30;;;9.30;99.90;;;;;;4941212;28;20213;-58
2023/12/26 04:56:26;;;;;;;0.50;0.43;;;9.30;99.90;;;;;;4950960;28;20270;-55
2023/12/26 04:58:52;;;;;;;0.40;0.40;;;9.30;99.90;;;;;;4959629;28;20548;-56
2023/12/26 05:01:19;;;;;;;0.20;0.20;;;9.10;99.90;;;;;;4938271;28;20267;-56
2023/12/26 05:03:45;;;;;;;0.30;0.30;;;9.20;99.90;;;;;;4938684;28;20210;-56
2023/12/26 05:06:12;;;;;;;0.50;0.50;;;9.30;99.90;;;;;;4939967;28;20725;-55
2023/12/26 05:08:38;;;;;;;0.50;0.50;;;9.30;99.90;;;;;;4939150;28;20198;-56
2023/12/26 05:11:07;;;;;;;0.40;0.40;;;9.20;99.90;;;;;;4938916;28;20206;-56
2023/12/26 05:13:33;;;;;;;0.50;0.50;;;9.20;99.90;;;;;;4957252;28;20208;-56
2023/12/26 05:16:05;;;;;;;0.47;0.47;;;9.10;99.90;;;;;;4943441;28;20229;-55
2023/12/26 05:18:31;;;;;;;0.33;0.33;;;9.10;99.90;;;;;;4932578;28;20194;-55
2023/12/26 05:20:58;;;;;;;0.50;0.50;;;9.20;99.90;;;;;;4939442;28;20206;-56
2023/12/26 05:23:24;;;;;;;0.60;0.60;;;9.20;99.90;;;;;;4945633;28;20233;-56
2023/12/26 05:25:49;;;;;;;1.10;0.53;;;9.10;99.90;;;;;;4938777;28;20249;-56
2023/12/26 05:28:15;;;;;;;0.50;0.50;;;9.20;99.90;;;;;;4944725;28;20214;-56
2023/12/26 05:30:40;;;;;;;0.50;0.50;;;9.10;99.90;;;;;;4939160;28;20198;-56
2023/12/26 05:33:08;;;;;;;0.50;0.50;;;9.20;99.90;;;;;;4936991;28;20206;-56
2023/12/26 05:35:34;;;;;;;0.60;0.60;;;9.10;99.90;;;;;;4941710;28;20207;-56
2023/12/26 05:38:00;;;;;;;0.70;0.70;;;9.20;99.90;;;;;;4941992;28;20213;-56
2023/12/26 05:40:26;;;;;;;1.73;0.80;;;9.10;99.90;;;;;;4932725;28;20202;-67
2023/12/26 05:42:52;;;;;;;2.73;1.53;;;9.10;99.90;;;;;;4938965;28;20698;-67
2023/12/26 05:45:17;;;;;;;1.30;1.20;;;9.10;99.90;;;;;;4938843;28;20251;-66
2023/12/26 05:47:43;;;;;;;0.80;0.80;;;9.10;99.90;;;;;;4948028;28;20202;-57
2023/12/26 05:50:09;;;;;;;2.43;0.80;;;9.20;99.90;;;;;;4932598;28;20284;-55
2023/12/26 05:52:34;;;;;;;1.33;0.83;;;9.10;99.90;;;;;;4941085;28;20296;-56
2023/12/26 05:55:00;;;;;;;1.93;1.00;;;9.20;99.90;;;;;;4946918;28;20251;-56
2023/12/26 05:57:26;;;;;;;0.67;0.67;;;9.20;99.90;;;;;;4954205;28;20212;-56
2023/12/26 05:59:52;;;;;;;0.83;0.80;;;9.10;99.90;;;;;;4941979;28;20300;-56
2023/12/26 06:02:18;;;;;;;0.40;0.40;;;9.10;99.90;;;;;;4959735;28;20226;-56
2023/12/26 06:04:44;;;;;;;0.70;0.70;;;9.20;99.90;;;;;;4951957;28;20664;-55
2023/12/26 06:07:09;;;;;;;0.50;0.50;;;9.10;99.90;;;;;;4954805;28;20232;-55
2023/12/26 06:09:35;;;;;;;0.90;0.57;;;9.10;99.90;;;;;;4943808;28;20304;-55
2023/12/26 06:12:00;;;;;;;0.70;0.70;;;9.00;99.90;;;;;;4950220;28;20649;-55
2023/12/26 06:14:26;;;;;;;0.63;0.50;;;9.00;99.90;;;;;;4959253;28;20295;-56
2023/12/26 06:16:51;;;;;;;0.60;0.60;;;9.00;99.90;;;;;;4942796;28;20686;-56
2023/12/26 06:19:18;;;;;;;0.30;0.30;;;9.10;99.90;;;;;;4955889;28;20252;-56
2023/12/26 06:21:43;;;;;;;1.97;0.40;;;9.00;99.90;;;;;;4940161;28;20228;-56
2023/12/26 06:24:09;;;;;;;0.50;0.50;;;9.00;99.90;;;;;;4939642;28;20974;-57
2023/12/26 06:26:34;;;;;;;0.70;0.70;;;9.00;99.90;;;;;;4942782;28;20920;-57
2023/12/26 06:29:00;;;;;;;0.80;0.80;;;9.00;99.90;;;;;;4949179;28;20599;-56
2023/12/26 06:31:25;;;;;;;1.37;0.90;;;9.00;99.90;;;;;;4948725;28;20217;-56
2023/12/26 06:33:51;;;;;;;0.50;0.50;;;9.00;99.90;;;;;;4941662;28;20202;-56
2023/12/26 06:36:17;;;;;;;0.40;0.40;;;9.00;99.90;;;;;;4962224;28;20201;-56
2023/12/26 06:38:43;;;;;;;0.53;0.53;;;9.00;99.90;;;;;;4945370;28;20681;-55
2023/12/26 06:41:10;;;;;;;0.40;0.40;;;9.00;99.90;;;;;;4936061;28;20202;-57
2023/12/26 06:43:36;;;;;;;0.50;0.50;;;9.10;99.90;;;;;;4937247;28;20230;-56
2023/12/26 06:46:03;;;;;;;0.77;0.70;;;9.00;99.90;;;;;;4942802;28;20660;-56
2023/12/26 06:48:29;;;;;;;0.70;0.40;;;9.10;99.90;;;;;;4936864;28;20715;-56
2023/12/26 06:50:54;;;;;;;0.20;0.20;;;9.10;99.90;;;;;;4931858;28;20213;-56
2023/12/26 06:53:20;;;;;;;0.30;0.30;;;9.10;99.90;;;;;;4937339;28;20214;-56
2023/12/26 06:55:45;;;;;;;0.40;0.40;;;9.00;99.90;;;;;;4934631;28;20228;-56
2023/12/26 06:58:11;;;;;;;0.37;0.37;;;9.00;99.90;;;;;;4943907;28;20265;-57
2023/12/26 07:00:37;;;;;;;0.30;0.30;;;9.00;99.90;;;;;;4957463;28;20242;-57
2023/12/26 07:03:03;;;;;;;0.43;0.30;;;8.90;99.90;;;;;;4941736;28;20190;-55
2023/12/26 07:05:31;;;;;;;0.50;0.50;;;9.00;99.90;;;;;;4936247;28;20206;-55
2023/12/26 07:07:56;;;;;;;0.30;0.30;;;8.80;99.90;;;;;;4949259;28;20687;-56
2023/12/26 07:10:22;;;;;;;0.30;0.30;;;8.80;99.90;;;;;;4954960;28;20202;-56
2023/12/26 07:12:47;;;;;;;0.30;0.30;;;8.80;99.90;;;;;;4943282;28;20284;-56
2023/12/26 07:15:13;;;;;;;0.20;0.20;;;8.80;99.90;;;;;;4948089;28;20284;-56
2023/12/26 07:17:38;;;;;;;0.37;0.37;;;8.80;99.90;;;;;;4932841;28;20758;-56
2023/12/26 07:20:08;;;;;;;0.40;0.40;;;8.80;99.90;;;;;;4938531;28;20219;-56
2023/12/26 07:22:33;;;;;;;4.33;0.50;;;8.70;99.90;;;;;;4939146;28;20327;-57
2023/12/26 07:24:59;;;;;;;0.60;0.60;;;8.70;99.90;;;;;;4936824;28;20806;-56
2023/12/26 07:27:24;;;;;;;0.70;0.70;;;8.70;99.90;;;;;;4956759;28;20397;-56
2023/12/26 07:29:50;;;;;;;1.70;0.60;;;8.70;99.90;;;;;;4962390;28;20614;-56
2023/12/26 07:32:15;;;;;;;1.00;0.90;;;8.70;99.90;;;;;;4962133;28;20206;-56
2023/12/26 07:34:41;;;;;;;0.43;0.43;;;8.80;99.90;;;;;;4967374;28;20201;-56
2023/12/26 07:37:07;;;;;;;1.23;0.60;;;8.70;99.90;;;;;;4943275;28;20210;-56
2023/12/26 07:39:33;;;;;;;0.60;0.60;;;8.70;99.90;;;;;;4948418;28;20933;-56
2023/12/26 07:42:00;;;;;;;0.37;0.37;;;8.70;99.90;;;;;;4942913;28;20210;-56
2023/12/26 07:44:26;;;;;;;0.53;0.53;;;8.70;99.90;;;;;;4942962;28;20201;-56
2023/12/26 07:46:51;;;;;;;0.60;0.60;;;8.70;99.90;;;;;;4944310;28;20217;-57
2023/12/26 07:49:17;;;;;;;1.57;0.87;;;8.70;99.90;;;;;;4940404;28;20201;-57
2023/12/26 07:51:42;;;;;;;0.90;0.63;;;8.70;99.90;;;;;;4938265;28;20277;-56
2023/12/26 07:54:08;;;;;;;0.77;0.53;;;8.70;99.90;;;;;;4941900;28;20327;-56
2023/12/26 07:56:34;;;;;;;0.40;0.40;;;8.80;99.90;;;;;;4940102;28;20209;-57
2023/12/26 07:58:59;;;;;;;0.70;0.70;;;8.70;99.90;;;;;;4950946;28;20224;-56
2023/12/26 08:01:26;;;;;;;0.70;0.70;;;8.80;99.90;;;;;;4948914;28;20198;-57
2023/12/26 08:03:52;;;;;;;0.30;0.30;;;8.90;99.90;;;;;;4940610;28;20212;-56
2023/12/26 08:06:18;;;;;;;0.83;0.80;;;8.90;99.90;;;;;;4951424;28;20229;-57
2023/12/26 08:08:43;;;;;;;0.63;0.63;;;8.90;99.90;;;;;;4954764;28;20653;-57
2023/12/26 08:11:09;;;;;;;1.80;0.60;;;9.00;99.90;;;;;;4946123;28;20214;-56
2023/12/26 08:13:34;;;;;;;1.50;1.00;;;9.00;99.90;;;;;;4952983;28;20198;-56
2023/12/26 08:16:00;;;;;;;0.60;0.60;;;9.10;99.90;;;;;;4956325;28;20595;-56
2023/12/26 08:18:25;;;;;;;0.43;0.43;;;9.10;99.90;;;;;;4972301;28;20191;-56
2023/12/26 08:20:51;;;;;;;0.70;0.70;;;9.10;99.90;;;;;;4956475;28;20209;-56
2023/12/26 08:23:16;;;;;;;0.60;0.60;;;9.00;99.90;;;;;;4940032;28;20214;-56
2023/12/26 08:25:42;;;;;;;0.70;0.70;;;9.10;99.90;;;;;;4941305;28;20222;-55
2023/12/26 08:28:08;;;;;;;2.50;0.97;;;9.10;99.90;;;;;;4937488;28;20511;-56
2023/12/26 08:30:33;;;;;;;2.73;0.80;;;9.10;99.90;;;;;;4953914;28;21040;-56
2023/12/26 08:32:59;;;;;;;1.30;0.67;;;9.10;99.90;;;;;;4946611;28;20202;-55
2023/12/26 08:35:24;;;;;;;1.50;0.80;;;9.10;99.90;;;;;;4953600;28;20206;-55
2023/12/26 08:37:50;;;;;;;2.07;0.70;;;9.10;99.90;;;;;;4945582;28;20201;-57
2023/12/26 08:40:18;;;;;;;0.93;0.70;;;9.10;99.90;;;;;;4945467;28;20713;-56
2023/12/26 08:42:44;;;;;;;1.33;0.57;;;9.00;99.90;;;;;;4948463;28;20852;-57
2023/12/26 08:45:09;;;;;;;1.27;0.83;;;9.00;99.90;;;;;;4946300;28;20210;-57
2023/12/26 08:47:35;;;;;;;1.23;0.60;;;9.10;99.90;;;;;;4955788;28;20230;-61
2023/12/26 08:50:01;;;;;;;2.90;0.73;;;9.00;99.90;;;;;;4933533;28;20221;-56
2023/12/26 08:52:26;;;;;;;3.40;1.23;;;9.10;99.90;;;;;;4927112;28;20206;-55
2023/12/26 08:54:52;;;;;;;1.00;0.90;;;9.10;99.90;;;;;;4936640;28;20664;-56
2023/12/26 08:57:17;;;;;;;0.97;0.93;;;9.10;99.90;;;;;;4937017;28;20206;-56
2023/12/26 08:59:43;;;;;;;2.97;1.00;;;9.10;99.90;;;;;;4947397;28;20291;-57
2023/12/26 09:02:09;;;;;;;1.83;0.90;;;9.10;99.90;;;;;;4936624;28;20252;-56
2023/12/26 09:04:34;;;;;;;1.07;0.90;;;9.10;99.90;;;;;;4936372;28;20807;-56
2023/12/26 09:07:00;;;;;;;3.83;0.93;;;9.10;99.90;;;;;;4951184;28;20218;-57
2023/12/26 09:09:27;;;;;;;1.40;0.87;;;9.10;99.90;;;;;;4949755;28;20202;-67
2023/12/26 09:11:56;;;;;;;3.87;1.07;;;9.00;99.90;;;;;;4937834;28;20203;-66
2023/12/26 09:14:22;;;;;;;1.30;0.80;;;9.00;99.90;;;;;;4932055;28;20785;-66
2023/12/26 09:16:47;;;;;;;1.60;0.93;;;9.00;99.90;;;;;;4929285;28;20279;-56
2023/12/26 09:19:13;;;;;;;0.97;0.90;;;9.30;99.90;;;;;;4941644;28;20715;-63
2023/12/26 09:21:39;;;;;;;4.73;1.00;;;9.50;99.90;;;;;;4929669;28;20199;-64
2023/12/26 09:24:05;;;;;;;1.00;1.00;;;9.60;99.90;;;;;;4941487;28;21025;-56
2023/12/26 09:26:31;;;;;;;2.87;1.07;;;9.80;99.90;;;;;;4933295;28;20305;-56
2023/12/26 09:28:56;;;;;;;3.20;0.90;;;9.70;99.90;;;;;;4934106;28;20210;-56
2023/12/26 09:31:22;;;;;;;0.97;0.80;;;9.70;99.90;;;;;;4934450;28;20353;-55
2023/12/26 09:33:48;;;;;;;2.40;1.03;;;9.70;99.90;;;;;;4930618;28;20209;-55
2023/12/26 09:36:14;;;;;;;2.67;1.17;;;9.80;99.90;;;;;;4933777;28;20279;-55
2023/12/26 09:38:41;;;;;;;3.80;0.97;;;10.00;99.90;;;;;;4930179;28;20214;-54
2023/12/26 09:41:07;;;;;;;6.80;1.40;;;9.80;99.90;;;;;;4930714;28;20200;-56
2023/12/26 09:43:32;;;;;;;1.53;1.00;;;9.70;99.90;;;;;;4929244;28;20195;-57
2023/12/26 09:45:58;;;;;;;2.43;1.30;;;9.90;99.90;;;;;;4953499;28;20658;-55
2023/12/26 09:48:24;;;;;;;1.87;1.00;;;10.00;99.90;;;;;;4942038;28;20233;-56
2023/12/26 09:50:53;;;;;;;1.00;0.80;;;10.10;99.90;;;;;;4932644;28;20214;-55
2023/12/26 09:53:23;;;;;;;2.53;0.87;;;9.90;99.90;;;;;;4943094;28;20246;-54
2023/12/26 09:55:50;;;;;;;2.33;0.80;;;10.00;99.90;;;;;;4938928;28;20300;-56
2023/12/26 09:58:19;;;;;;;3.17;0.97;;;9.90;99.90;;;;;;4928616;28;20200;-56
2023/12/26 10:00:48;;;;;;;2.57;1.23;;;10.20;99.90;;;;;;4933951;28;20205;-56
2023/12/26 10:03:14;;;;;;;1.60;0.73;;;10.40;99.90;;;;;;4937091;28;20643;-56
2023/12/26 10:05:39;;;;;;;3.93;1.00;;;10.20;99.90;;;;;;4933563;28;20206;-58
2023/12/26 10:08:05;;;;;;;3.50;1.00;;;10.10;99.90;;;;;;4937900;28;20206;-64
2023/12/26 10:10:30;;;;;;;3.43;0.80;;;10.10;99.90;;;;;;4956099;28;20231;-64
2023/12/26 10:12:56;;;;;;;4.37;0.97;;;10.30;99.90;;;;;;4953248;28;20202;-56
2023/12/26 10:15:21;;;;;;;3.13;1.00;;;10.30;99.90;;;;;;4956885;28;20202;-56
2023/12/26 10:17:47;;;;;;;4.53;0.80;;;10.20;99.90;;;;;;4950294;28;20199;-56
2023/12/26 10:20:17;;;;;;;4.10;1.27;;;10.20;99.90;;;;;;4940608;28;20209;-55
2023/12/26 10:22:43;;;;;;;1.40;0.50;;;10.30;99.90;;;;;;4936677;28;20198;-62
2023/12/26 10:25:13;;;;;;;3.87;1.03;;;10.30;99.90;;;;;;4962474;28;20207;-60
2023/12/26 10:27:40;;;;;;;3.87;1.30;;;10.40;99.90;;;;;;4950289;28;20570;-69
2023/12/26 10:30:06;;;;;;;3.77;1.03;;;10.40;99.90;;;;;;4946016;28;20265;-56
2023/12/26 10:32:31;;;;;;;1.47;1.20;;;10.40;99.90;;;;;;4931482;28;20202;-55
2023/12/26 10:35:15;;;;;;;2.73;1.60;;;10.40;99.90;;;;;;4932764;28;20206;-56
2023/12/26 10:37:40;;;;;;;1.03;1.00;;;10.30;99.90;;;;;;4936950;28;20212;-54
2023/12/26 10:40:07;;;;;;;3.30;1.00;;;10.30;99.90;;;;;;4940666;28;20210;-55
2023/12/26 10:42:38;;;;;;;5.83;1.43;;;10.40;99.90;;;;;;4953164;28;20198;-62
2023/12/26 10:45:05;;;;;;;2.50;1.17;;;10.40;99.90;;;;;;4929595;28;20250;-56
2023/12/26 10:47:31;;;;;;;5.80;1.00;;;10.20;99.90;;;;;;4956539;28;20238;-63
2023/12/26 10:50:02;;;;;;;6.43;1.33;;;10.20;99.90;;;;;;4948797;28;20759;-58
2023/12/26 10:52:29;;;;;;;2.87;1.30;;;9.90;99.90;;;;;;4961016;28;20210;-56
2023/12/26 10:55:00;;;;;;;1.60;1.37;;;10.10;99.90;;;;;;4957920;28;20208;-57
2023/12/26 10:57:30;;;;;;;3.03;0.97;;;10.10;99.90;;;;;;4941819;28;20443;-55
2023/12/26 10:59:55;;;;;;;5.60;1.70;;;10.10;99.90;;;;;;4944599;28;20240;-55
2023/12/26 11:02:21;;;;;;;2.27;1.57;;;10.10;99.90;;;;;;4944463;28;20213;-55
2023/12/26 11:04:48;;;;;;;4.10;1.40;;;10.10;99.90;;;;;;4952652;28;20212;-55
2023/12/26 11:07:14;;;;;;;5.53;1.87;;;10.20;99.90;;;;;;4943605;28;20218;-55
2023/12/26 11:09:40;;;;;;;3.40;0.93;;;9.90;99.90;;;;;;4949109;28;20203;-55
2023/12/26 11:12:06;;;;;;;6.60;1.80;;;9.90;99.90;;;;;;4942703;28;20202;-55
2023/12/26 11:14:32;;;;;;;2.97;1.37;;;10.10;99.90;;;;;;4967559;28;20875;-64
2023/12/26 11:16:57;;;;;;;3.43;0.90;;;10.20;99.90;;;;;;4959439;28;20839;-76
2023/12/26 11:19:23;;;;;;;5.10;1.97;;;9.80;99.90;;;;;;4936998;28;20692;-56
2023/12/26 11:21:49;;;;;;;2.47;1.00;;;9.70;99.90;;;;;;4950026;28;20228;-55
2023/12/26 11:24:16;;;;;;;5.57;1.57;;;9.60;99.90;;;;;;4943962;28;20211;-57
2023/12/26 11:26:42;;;;;;;3.50;1.93;;;9.70;99.90;;;;;;4936934;28;20229;-56
2023/12/26 11:29:08;;;;;;;2.93;0.90;;;9.70;99.90;;;;;;4934493;28;20199;-55
2023/12/26 11:31:35;;;;;;;6.13;1.47;;;9.60;99.90;;;;;;4937143;28;20564;-57
2023/12/26 11:34:02;;;;;;;2.67;1.40;;;9.50;99.90;;;;;;4960116;28;20296;-54
2023/12/26 11:36:27;;;;;;;7.03;1.53;;;9.50;99.90;;;;;;4939296;28;20298;-55
2023/12/26 11:38:53;;;;;;;5.07;1.43;;;9.40;99.90;;;;;;4939063;28;21147;-55
2023/12/26 11:41:19;;;;;;;4.53;1.10;;;9.40;99.90;;;;;;4933664;28;20214;-55
2023/12/26 11:43:45;;;;;;;3.40;0.97;;;9.30;99.90;;;;;;4937053;28;20710;-59
2023/12/26 11:46:10;;;;;;;3.83;1.77;;;9.30;99.90;;;;;;4931221;28;20233;-55
2023/12/26 11:48:36;;;;;;;2.90;0.93;;;9.30;99.90;;;;;;4935429;28;20272;-56
2023/12/26 11:51:02;;;;;;;1.23;1.10;;;9.30;99.90;;;;;;4930023;28;20895;-54
2023/12/26 11:53:28;;;;;;;3.30;1.63;;;9.20;99.90;;;;;;4934013;28;20206;-55
2023/12/26 11:55:53;;;;;;;4.00;1.27;;;9.20;99.90;;;;;;4933053;28;20685;-56
2023/12/26 11:58:19;;;;;;;5.80;1.60;;;9.20;99.90;;;;;;4936035;28;20206;-56
2023/12/26 12:00:44;;;;;;;5.90;1.60;;;9.20;99.90;;;;;;4928205;28;20660;-55
2023/12/26 12:03:10;;;;;;;7.33;1.80;;;9.20;99.90;;;;;;4931679;28;20946;-54
2023/12/26 12:05:36;;;;;;;4.40;1.47;;;9.20;99.90;;;;;;4945191;28;20213;-55
2023/12/26 12:08:12;;;;;;;8.83;1.23;;;9.20;99.90;;;;;;4929257;28;20203;-54
2023/12/26 12:10:57;;;;;;;4.37;1.37;;;9.20;99.90;;;;;;4935950;28;20204;-55
2023/12/26 12:13:23;;;;;;;6.50;1.47;;;9.20;99.90;;;;;;4934737;28;20237;-54
2023/12/26 12:15:48;;;;;;;4.50;1.27;;;9.20;99.90;;;;;;4937731;28;20226;-55
2023/12/26 12:18:19;;;;;;;3.90;1.67;;;9.20;99.90;;;;;;4929166;28;20980;-55
2023/12/26 12:20:49;;;;;;;5.90;1.97;;;9.30;99.90;;;;;;4929875;28;20274;-54
2023/12/26 12:23:14;;;;;;;4.13;1.40;;;9.30;99.90;;;;;;4934828;28;20249;-55
2023/12/26 12:25:40;;;;;;;3.17;1.07;;;9.30;99.90;;;;;;4933865;28;20238;-56
2023/12/26 12:28:09;;;;;;;1.63;0.97;;;9.30;99.90;;;;;;4928645;28;20241;-55
2023/12/26 12:30:35;;;;;;;4.97;1.20;;;9.40;99.90;;;;;;4950834;28;20428;-56
2023/12/26 12:33:18;;;;;;;3.17;1.83;;;9.40;99.90;;;;;;4941311;28;20209;-55
2023/12/26 12:35:47;;;;;;;2.33;0.77;;;9.50;99.90;;;;;;4930468;28;20797;-61
2023/12/26 12:38:17;;;;;;;3.77;0.90;;;9.50;99.90;;;;;;4934274;28;20210;-56
2023/12/26 12:40:47;;;;;;;4.73;1.57;;;9.80;99.90;;;;;;4929446;28;20211;-55
2023/12/26 12:43:13;;;;;;;3.83;1.13;;;10.00;99.90;;;;;;4932212;28;20709;-55
2023/12/26 12:45:39;;;;;;;3.43;0.90;;;10.20;99.90;;;;;;4931952;28;20784;-61
2023/12/26 12:48:04;;;;;;;3.00;1.20;;;10.10;99.90;;;;;;4933045;28;20213;-60
2023/12/26 12:50:30;;;;;;;5.67;1.30;;;10.10;99.90;;;;;;4930148;28;20211;-62